Time;durP1;ratioP1;P1;durP2;ratioP2;P2;SDS_P1;SDS_P2;PMS_P1;PMS_P2;Temp;Humidity;BMP_temperature;BMP_pressure;BME280_temperature;BME280_humidity;BME280_pressure;Samples;Min_cycle;Max_cycle;Signal;HPM_P1;HPM_P2
2021/12/03 00:02:09;;;;;;;5.40;1.83;;;0.20;99.90;;;;;;5092716;28;20417;-72
2021/12/03 00:04:35;;;;;;;6.25;2.40;;;0.10;99.90;;;;;;5080301;28;20119;-71
2021/12/03 00:07:01;;;;;;;4.28;2.10;;;0.10;99.90;;;;;;5072368;28;20457;-71
2021/12/03 00:09:32;;;;;;;4.88;2.40;;;0.10;99.90;;;;;;5050863;28;20120;-71
2021/12/03 00:11:57;;;;;;;5.90;2.35;;;0.10;99.90;;;;;;5052267;28;20441;-71
2021/12/03 00:14:23;;;;;;;5.32;3.35;;;0.10;99.90;;;;;;5052392;28;20084;-71
2021/12/03 00:16:49;;;;;;;7.65;2.40;;;0.10;99.90;;;;;;5052297;28;20123;-72
2021/12/03 00:19:15;;;;;;;15.27;3.35;;;0.10;99.90;;;;;;5056905;28;20110;-72
2021/12/03 00:21:40;;;;;;;8.60;4.53;;;0.10;99.90;;;;;;5058827;28;20414;-72
2021/12/03 00:24:06;;;;;;;9.95;5.18;;;0.10;99.90;;;;;;5058963;28;20128;-71
2021/12/03 00:26:32;;;;;;;11.00;5.18;;;0.10;99.90;;;;;;5058881;28;20048;-71
2021/12/03 00:28:58;;;;;;;14.98;6.50;;;0.20;99.90;;;;;;5058835;28;20053;-72
2021/12/03 00:31:24;;;;;;;12.30;6.60;;;0.20;99.90;;;;;;5058955;28;20044;-71
2021/12/03 00:33:50;;;;;;;15.10;7.32;;;0.20;99.90;;;;;;5058844;28;20174;-71
2021/12/03 00:36:15;;;;;;;14.95;7.70;;;0.30;99.90;;;;;;5058890;28;20397;-71
2021/12/03 00:38:46;;;;;;;18.52;8.00;;;0.30;99.90;;;;;;5058730;28;20381;-71
2021/12/03 00:41:15;;;;;;;18.08;8.85;;;0.40;99.90;;;;;;5058793;28;20052;-71
2021/12/03 00:43:46;;;;;;;18.67;10.05;;;0.50;99.90;;;;;;5058751;28;20053;-72
2021/12/03 00:46:16;;;;;;;17.08;9.85;;;0.60;99.90;;;;;;5058903;28;20041;-71
2021/12/03 00:48:42;;;;;;;22.50;12.02;;;0.60;99.90;;;;;;5058686;28;20413;-72
2021/12/03 00:51:09;;;;;;;26.55;13.25;;;0.80;99.90;;;;;;5058751;28;20041;-71
2021/12/03 00:53:38;;;;;;;33.30;16.30;;;0.80;99.90;;;;;;5057834;28;20045;-71
2021/12/03 00:56:04;;;;;;;27.88;16.55;;;0.90;99.90;;;;;;5058717;28;20044;-71
2021/12/03 00:58:30;;;;;;;27.50;16.10;;;1.00;99.90;;;;;;5058762;28;20045;-71
2021/12/03 01:00:56;;;;;;;28.15;15.15;;;1.00;99.90;;;;;;5058771;28;20045;-71
2021/12/03 01:03:23;;;;;;;28.33;14.48;;;1.00;99.90;;;;;;5060733;28;20140;-72
2021/12/03 01:05:49;;;;;;;24.58;14.25;;;1.10;99.90;;;;;;5078517;28;20056;-71
2021/12/03 01:08:15;;;;;;;19.60;10.43;;;1.20;99.90;;;;;;5086731;28;20399;-72
2021/12/03 01:10:41;;;;;;;22.23;10.45;;;1.20;99.90;;;;;;5098895;28;20094;-71
2021/12/03 01:13:07;;;;;;;19.70;9.77;;;1.30;99.90;;;;;;5098669;28;20043;-72
2021/12/03 01:15:37;;;;;;;20.83;8.55;;;1.30;99.90;;;;;;5099028;28;20055;-71
2021/12/03 01:18:05;;;;;;;20.93;9.43;;;1.40;99.90;;;;;;5098818;28;20052;-72
2021/12/03 01:20:31;;;;;;;18.70;8.32;;;1.40;99.90;;;;;;5098809;28;20586;-71
2021/12/03 01:22:58;;;;;;;16.10;8.02;;;1.50;99.90;;;;;;5098707;28;20040;-71
2021/12/03 01:25:24;;;;;;;17.27;7.15;;;1.50;99.90;;;;;;5098764;28;20067;-71
2021/12/03 01:27:51;;;;;;;13.00;6.72;;;1.50;99.90;;;;;;5098334;28;20040;-71
2021/12/03 01:30:20;;;;;;;13.90;7.63;;;1.60;99.90;;;;;;5095831;28;20180;-71
2021/12/03 01:32:47;;;;;;;15.95;8.80;;;1.60;99.90;;;;;;5077650;28;20048;-72
2021/12/03 01:35:14;;;;;;;18.13;8.85;;;1.70;99.90;;;;;;5095344;28;20044;-71
2021/12/03 01:37:40;;;;;;;19.55;11.10;;;1.70;99.90;;;;;;5095154;28;20066;-72
2021/12/03 01:40:10;;;;;;;18.95;11.68;;;1.70;99.90;;;;;;5095356;28;20075;-71
2021/12/03 01:42:38;;;;;;;21.77;12.32;;;1.80;99.90;;;;;;5095368;28;20192;-71
2021/12/03 01:45:05;;;;;;;21.90;12.30;;;1.70;99.90;;;;;;5095213;28;20044;-71
2021/12/03 01:47:31;;;;;;;23.08;11.80;;;1.80;99.90;;;;;;5095245;28;20054;-72
2021/12/03 01:49:57;;;;;;;29.02;13.35;;;1.80;99.90;;;;;;5095034;28;20044;-71
2021/12/03 01:52:23;;;;;;;25.33;15.02;;;1.80;99.90;;;;;;5095038;28;20047;-71
2021/12/03 01:54:49;;;;;;;27.45;16.08;;;1.80;99.90;;;;;;5077365;28;20047;-72
2021/12/03 01:57:14;;;;;;;29.40;18.25;;;1.80;99.90;;;;;;5095044;28;20040;-71
2021/12/03 01:59:40;;;;;;;31.02;18.25;;;1.80;99.90;;;;;;5094601;28;20044;-72
2021/12/03 02:02:06;;;;;;;32.38;18.60;;;1.80;99.90;;;;;;5094610;28;20044;-72
2021/12/03 02:04:32;;;;;;;35.53;22.20;;;1.80;99.90;;;;;;5082554;28;20127;-72
2021/12/03 02:06:58;;;;;;;36.35;21.17;;;1.80;99.90;;;;;;5074765;28;20048;-72
2021/12/03 02:09:24;;;;;;;34.05;19.40;;;1.80;99.90;;;;;;5074292;28;20052;-71
2021/12/03 02:11:49;;;;;;;33.05;21.42;;;1.80;99.90;;;;;;5074543;28;20121;-70
2021/12/03 02:14:15;;;;;;;30.92;20.98;;;1.80;99.90;;;;;;5074362;28;20124;-72
2021/12/03 02:16:45;;;;;;;31.02;19.70;;;1.80;99.90;;;;;;5074381;28;20071;-72
2021/12/03 02:19:11;;;;;;;35.67;21.30;;;1.80;99.90;;;;;;5074309;28;20044;-71
2021/12/03 02:21:37;;;;;;;30.00;19.95;;;1.80;99.90;;;;;;5074299;28;20044;-71
2021/12/03 02:24:03;;;;;;;29.38;19.27;;;1.80;99.90;;;;;;5056554;28;20090;-72
2021/12/03 02:26:29;;;;;;;31.00;22.90;;;1.80;99.90;;;;;;5074350;28;20040;-72
2021/12/03 02:28:55;;;;;;;28.60;19.80;;;1.80;99.90;;;;;;5074082;28;20045;-71
2021/12/03 02:31:24;;;;;;;31.67;21.92;;;1.80;99.90;;;;;;5074028;28;20456;-72
2021/12/03 02:33:51;;;;;;;28.02;17.35;;;1.80;99.90;;;;;;5074255;28;20530;-71
2021/12/03 02:36:18;;;;;;;29.80;20.88;;;1.80;99.90;;;;;;5074204;28;20131;-71
2021/12/03 02:38:44;;;;;;;33.53;20.13;;;1.80;99.90;;;;;;5073931;28;20415;-71
2021/12/03 02:41:10;;;;;;;25.08;16.90;;;1.80;99.90;;;;;;5073857;28;20048;-71
2021/12/03 02:43:36;;;;;;;24.67;17.45;;;1.80;99.90;;;;;;5073742;28;20097;-71
2021/12/03 02:46:02;;;;;;;27.83;18.58;;;1.80;99.90;;;;;;5073706;28;20087;-71
2021/12/03 02:48:31;;;;;;;24.95;17.75;;;1.80;99.90;;;;;;5073417;28;20154;-72
2021/12/03 02:50:57;;;;;;;26.55;17.67;;;1.80;99.90;;;;;;5073734;28;20130;-71
2021/12/03 02:53:22;;;;;;;25.27;17.40;;;1.80;99.90;;;;;;5073846;28;20460;-71
2021/12/03 02:55:49;;;;;;;28.60;17.83;;;1.80;99.90;;;;;;5073679;28;20050;-71
2021/12/03 02:58:15;;;;;;;23.92;16.85;;;1.70;99.90;;;;;;5073462;28;20048;-72
2021/12/03 03:00:43;;;;;;;29.27;16.63;;;1.70;99.90;;;;;;5073384;28;20040;-72
2021/12/03 03:03:08;;;;;;;22.70;15.65;;;1.70;99.90;;;;;;5073752;28;20368;-71
2021/12/03 03:05:35;;;;;;;23.02;15.60;;;1.70;99.90;;;;;;5075635;28;20054;-72
2021/12/03 03:08:00;;;;;;;23.15;16.63;;;1.70;99.90;;;;;;5093408;28;20063;-71
2021/12/03 03:10:30;;;;;;;20.67;15.05;;;1.70;99.90;;;;;;5075538;28;20457;-71
2021/12/03 03:12:59;;;;;;;17.58;12.90;;;1.70;99.90;;;;;;5093156;28;20673;-71
2021/12/03 03:15:25;;;;;;;21.38;15.68;;;1.70;99.90;;;;;;5093400;28;20086;-71
2021/12/03 03:17:51;;;;;;;19.55;14.32;;;1.70;99.90;;;;;;5093647;28;20069;-72
2021/12/03 03:20:18;;;;;;;20.58;13.88;;;1.70;99.90;;;;;;5092898;28;20526;-71
2021/12/03 03:22:47;;;;;;;21.88;15.07;;;1.60;99.90;;;;;;5093548;28;20362;-71
2021/12/03 03:25:15;;;;;;;20.90;13.15;;;1.60;99.90;;;;;;5093193;28;20056;-72
2021/12/03 03:27:42;;;;;;;18.42;13.63;;;1.70;99.90;;;;;;5093068;28;20498;-72
2021/12/03 03:30:12;;;;;;;22.08;13.93;;;1.60;99.90;;;;;;5092856;28;20048;-71
2021/12/03 03:32:38;;;;;;;22.55;14.93;;;1.60;99.90;;;;;;5093149;28;20476;-71
2021/12/03 03:35:05;;;;;;;14.15;9.80;;;1.60;99.90;;;;;;5093186;28;20035;-71
2021/12/03 03:37:30;;;;;;;19.13;14.18;;;1.60;99.90;;;;;;5093191;28;20047;-71
2021/12/03 03:39:56;;;;;;;22.27;14.60;;;1.60;99.90;;;;;;5092942;28;20048;-70
2021/12/03 03:42:22;;;;;;;20.40;14.48;;;1.60;99.90;;;;;;5093030;28;20046;-71
2021/12/03 03:44:48;;;;;;;19.10;12.80;;;1.50;99.90;;;;;;5092799;28;20058;-71
2021/12/03 03:47:15;;;;;;;17.58;13.77;;;1.60;99.90;;;;;;5092942;28;20113;-72
2021/12/03 03:49:41;;;;;;;18.02;13.90;;;1.50;99.90;;;;;;5092877;28;20039;-71
2021/12/03 03:52:08;;;;;;;22.17;14.30;;;1.60;99.90;;;;;;5092747;28;20327;-71
2021/12/03 03:54:34;;;;;;;19.60;13.77;;;1.50;99.90;;;;;;5092226;28;20059;-72
2021/12/03 03:57:01;;;;;;;16.67;11.57;;;1.50;99.90;;;;;;5092346;28;20044;-72
2021/12/03 03:59:27;;;;;;;18.85;11.60;;;1.60;99.90;;;;;;5092558;28;20453;-71
2021/12/03 04:01:53;;;;;;;19.20;12.95;;;1.60;99.90;;;;;;5075168;28;20032;-72
2021/12/03 04:04:21;;;;;;;21.90;14.07;;;1.60;99.90;;;;;;5082444;28;20089;-72
2021/12/03 04:06:48;;;;;;;20.40;13.45;;;1.60;99.90;;;;;;5072515;28;20349;-71
2021/12/03 04:09:13;;;;;;;16.30;11.73;;;1.60;99.90;;;;;;5054245;28;20049;-71
2021/12/03 04:11:39;;;;;;;17.15;13.90;;;1.60;99.90;;;;;;5072297;28;20056;-72
2021/12/03 04:14:05;;;;;;;18.73;13.93;;;1.60;99.90;;;;;;5072211;28;20342;-71
2021/12/03 04:16:32;;;;;;;19.05;14.30;;;1.60;99.90;;;;;;5072437;28;20044;-71
2021/12/03 04:18:58;;;;;;;21.10;14.70;;;1.50;99.90;;;;;;5072583;28;20052;-71
2021/12/03 04:21:25;;;;;;;21.10;14.82;;;1.60;99.90;;;;;;5072335;28;20054;-71
2021/12/03 04:23:52;;;;;;;19.85;13.40;;;1.60;99.90;;;;;;5072207;28;20202;-71
2021/12/03 04:26:18;;;;;;;18.05;13.10;;;1.60;99.90;;;;;;5072563;28;20040;-71
2021/12/03 04:28:43;;;;;;;19.80;13.45;;;1.60;99.90;;;;;;5072289;28;20040;-71
2021/12/03 04:31:09;;;;;;;19.45;13.60;;;1.60;99.90;;;;;;5054659;28;20136;-71
2021/12/03 04:33:36;;;;;;;17.83;14.07;;;1.70;99.90;;;;;;5072265;28;20036;-72
2021/12/03 04:36:01;;;;;;;18.55;12.80;;;1.70;99.90;;;;;;5072075;28;20036;-71
2021/12/03 04:38:27;;;;;;;21.35;14.52;;;1.70;99.90;;;;;;5072109;28;20063;-72
2021/12/03 04:40:53;;;;;;;19.13;15.07;;;1.60;99.90;;;;;;5071916;28;20429;-72
2021/12/03 04:43:19;;;;;;;15.15;11.63;;;1.60;99.90;;;;;;5072280;28;20036;-71
2021/12/03 04:45:45;;;;;;;16.60;11.52;;;1.60;99.90;;;;;;5071996;28;20393;-71
2021/12/03 04:48:11;;;;;;;19.58;12.52;;;1.60;99.90;;;;;;5072227;28;20044;-71
2021/12/03 04:50:39;;;;;;;14.23;9.00;;;1.60;99.90;;;;;;5071699;28;20094;-72
2021/12/03 04:53:07;;;;;;;15.00;10.02;;;1.60;99.90;;;;;;5072060;28;20040;-71
2021/12/03 04:55:33;;;;;;;19.88;13.02;;;1.60;99.90;;;;;;5071959;28;20539;-71
2021/12/03 04:57:59;;;;;;;17.38;13.32;;;1.60;99.90;;;;;;5071958;28;20040;-71
2021/12/03 05:00:37;;;;;;;19.65;12.63;;;1.60;99.90;;;;;;5071905;28;20080;-71
2021/12/03 05:03:03;;;;;;;18.73;13.48;;;1.60;99.90;;;;;;5072020;28;20104;-70
2021/12/03 05:05:33;;;;;;;22.63;13.25;;;1.60;99.90;;;;;;5092988;28;20040;-71
2021/12/03 05:08:02;;;;;;;11.33;9.43;;;1.60;99.90;;;;;;5095620;28;20377;-71
2021/12/03 05:10:33;;;;;;;15.50;9.73;;;1.70;99.90;;;;;;5095965;28;20413;-72
2021/12/03 05:13:02;;;;;;;13.38;10.90;;;1.70;99.90;;;;;;5095889;28;20051;-71
2021/12/03 05:15:28;;;;;;;20.65;13.20;;;1.80;99.90;;;;;;5095920;28;20048;-72
2021/12/03 05:17:54;;;;;;;16.70;12.50;;;1.80;99.90;;;;;;5095842;28;20356;-71
2021/12/03 05:20:20;;;;;;;19.95;13.75;;;1.80;99.90;;;;;;5095599;28;20464;-71
2021/12/03 05:22:46;;;;;;;21.67;14.75;;;1.80;99.90;;;;;;5095290;28;20449;-71
2021/12/03 05:25:13;;;;;;;18.95;14.13;;;1.90;99.90;;;;;;5095466;28;20040;-72
2021/12/03 05:27:39;;;;;;;20.05;13.88;;;1.90;99.90;;;;;;5095608;28;20039;-72
2021/12/03 05:30:07;;;;;;;22.25;15.32;;;1.90;99.90;;;;;;5077786;28;20039;-71
2021/12/03 05:32:33;;;;;;;15.18;9.27;;;1.90;99.90;;;;;;5095374;28;20060;-72
2021/12/03 05:34:59;;;;;;;16.02;11.40;;;1.90;99.90;;;;;;5095187;28;20131;-73
2021/12/03 05:37:25;;;;;;;19.70;13.00;;;2.00;99.90;;;;;;5094866;28;20048;-71
2021/12/03 05:39:51;;;;;;;12.13;8.88;;;2.10;99.90;;;;;;5095407;28;20046;-71
2021/12/03 05:42:16;;;;;;;15.75;11.40;;;2.10;99.90;;;;;;5095382;28;20062;-71
2021/12/03 05:44:42;;;;;;;17.50;10.02;;;2.10;99.90;;;;;;5095352;28;20302;-71
2021/12/03 05:47:08;;;;;;;13.07;8.07;;;2.10;99.90;;;;;;5095204;28;20036;-72
2021/12/03 05:49:34;;;;;;;16.58;11.77;;;2.10;99.90;;;;;;5095114;28;20353;-72
2021/12/03 05:52:00;;;;;;;22.05;12.07;;;2.10;99.90;;;;;;5094868;28;20108;-71
2021/12/03 05:54:27;;;;;;;19.70;12.27;;;2.10;99.90;;;;;;5077460;28;20505;-71
2021/12/03 05:56:53;;;;;;;20.65;11.50;;;2.10;99.90;;;;;;5095074;28;20353;-71
2021/12/03 05:59:19;;;;;;;18.77;12.00;;;2.20;99.90;;;;;;5077256;28;20394;-71
2021/12/03 06:01:45;;;;;;;21.27;11.35;;;2.20;99.90;;;;;;5094941;28;20223;-71
2021/12/03 06:04:11;;;;;;;19.38;11.55;;;2.20;99.90;;;;;;5068155;28;20434;-71
2021/12/03 06:06:37;;;;;;;14.60;8.50;;;2.20;99.90;;;;;;5074475;28;20095;-71
2021/12/03 06:09:04;;;;;;;16.67;10.85;;;2.20;99.90;;;;;;5074402;28;20158;-72
2021/12/03 06:11:31;;;;;;;16.60;9.48;;;2.30;99.90;;;;;;5075418;28;20045;-72
2021/12/03 06:13:57;;;;;;;16.52;10.40;;;2.30;99.90;;;;;;5074431;28;20036;-72
2021/12/03 06:16:23;;;;;;;16.13;11.02;;;2.40;99.90;;;;;;5073468;28;20331;-72
2021/12/03 06:18:49;;;;;;;17.17;8.88;;;2.30;99.90;;;;;;5074318;28;20052;-72
2021/12/03 06:21:15;;;;;;;18.10;10.68;;;2.40;99.90;;;;;;5074258;28;20059;-72
2021/12/03 06:23:41;;;;;;;16.65;9.85;;;2.40;99.90;;;;;;5074259;28;20044;-72
2021/12/03 06:26:08;;;;;;;14.73;8.48;;;2.40;99.90;;;;;;5074244;28;20066;-72
2021/12/03 06:28:36;;;;;;;14.27;8.50;;;2.50;99.90;;;;;;5074203;28;20097;-72
2021/12/03 06:31:03;;;;;;;15.65;8.50;;;2.50;99.90;;;;;;5073604;28;20447;-72
2021/12/03 06:33:29;;;;;;;19.48;8.15;;;2.50;99.90;;;;;;5074115;28;20055;-72
2021/12/03 06:35:54;;;;;;;16.55;8.88;;;2.50;99.90;;;;;;5073931;28;20040;-72
2021/12/03 06:38:21;;;;;;;15.05;9.00;;;2.60;99.90;;;;;;5073997;28;20044;-71
2021/12/03 06:40:49;;;;;;;13.18;7.60;;;2.60;99.90;;;;;;5073948;28;20464;-72
2021/12/03 06:43:15;;;;;;;9.30;6.18;;;2.50;99.90;;;;;;5073701;28;20047;-72
2021/12/03 06:45:41;;;;;;;11.88;6.60;;;2.50;99.90;;;;;;5073782;28;20056;-72
2021/12/03 06:48:08;;;;;;;10.95;5.13;;;2.50;99.90;;;;;;5073914;28;20048;-71
2021/12/03 06:50:34;;;;;;;11.65;5.60;;;2.50;99.90;;;;;;5073844;28;20048;-72
2021/12/03 06:53:04;;;;;;;8.43;4.95;;;2.50;99.90;;;;;;5073710;28;20052;-72
2021/12/03 06:56:20;;;;;;;7.57;4.80;;;2.50;99.90;;;;;;5073737;28;20040;-72
2021/12/03 06:58:22;;;;;;;10.77;4.65;;;2.50;99.90;;;;;;5062322;28;20424;-72
2021/12/03 07:00:54;;;;;;;6.93;4.07;;;2.50;99.90;;;;;;5055885;28;20358;-72
2021/12/03 07:03:21;;;;;;;10.80;4.15;;;2.60;99.90;;;;;;5075305;28;20037;-72
2021/12/03 07:05:46;;;;;;;15.38;6.07;;;2.60;99.90;;;;;;5093795;28;20047;-72
2021/12/03 07:08:13;;;;;;;13.60;5.25;;;2.60;99.90;;;;;;5093161;28;20172;-72
2021/12/03 07:10:39;;;;;;;10.45;6.07;;;2.70;99.90;;;;;;5093731;28;20048;-72
2021/12/03 07:13:05;;;;;;;3.25;2.50;;;2.70;99.90;;;;;;5093059;28;20554;-71
2021/12/03 07:15:31;;;;;;;10.35;4.57;;;2.70;99.90;;;;;;5093701;28;20044;-71
2021/12/03 07:17:57;;;;;;;5.95;3.30;;;2.80;99.90;;;;;;5093446;28;20040;-72
2021/12/03 07:20:26;;;;;;;11.15;4.65;;;2.80;99.90;;;;;;5075707;28;20352;-72
2021/12/03 07:22:53;;;;;;;10.80;4.93;;;2.80;99.90;;;;;;5093335;28;20114;-72
2021/12/03 07:25:20;;;;;;;18.02;3.22;;;2.80;99.90;;;;;;5075194;28;20051;-72
2021/12/03 07:27:46;;;;;;;6.35;3.40;;;2.80;99.90;;;;;;5092328;28;20047;-72
2021/12/03 07:30:14;;;;;;;9.45;3.45;;;2.80;99.90;;;;;;5093285;28;20094;-72
2021/12/03 07:32:40;;;;;;;2.97;1.42;;;2.80;99.90;;;;;;5093132;28;20463;-72
2021/12/03 07:35:07;;;;;;;6.90;3.47;;;2.80;99.90;;;;;;5093283;28;20044;-72
2021/12/03 07:37:33;;;;;;;10.15;3.28;;;2.80;99.90;;;;;;5092843;28;20131;-71
2021/12/03 07:40:08;;;;;;;5.95;3.10;;;2.80;99.90;;;;;;5093042;28;20451;-71
2021/12/03 07:42:35;;;;;;;7.93;3.35;;;2.80;99.90;;;;;;5092968;28;20109;-72
2021/12/03 07:45:05;;;;;;;7.63;3.25;;;2.80;99.90;;;;;;5092840;28;20039;-72
2021/12/03 07:47:31;;;;;;;4.88;2.45;;;2.90;99.90;;;;;;5092913;28;20040;-72
2021/12/03 07:49:56;;;;;;;8.48;4.38;;;2.90;99.90;;;;;;5093040;28;20104;-71
2021/12/03 07:52:22;;;;;;;4.50;2.47;;;2.90;99.90;;;;;;5092302;28;20361;-71
2021/12/03 07:54:49;;;;;;;9.13;4.25;;;3.00;99.90;;;;;;5092816;28;20055;-72
2021/12/03 07:57:15;;;;;;;10.90;5.43;;;3.00;99.90;;;;;;5092484;28;20452;-72
2021/12/03 07:59:41;;;;;;;5.63;3.28;;;3.00;99.90;;;;;;5092732;28;20048;-71
2021/12/03 08:02:07;;;;;;;12.73;6.70;;;3.00;99.90;;;;;;5092748;28;20039;-72
2021/12/03 08:04:33;;;;;;;11.55;5.75;;;3.10;99.90;;;;;;5080632;28;20044;-72
2021/12/03 08:07:00;;;;;;;14.13;5.45;;;3.10;99.90;;;;;;5072504;28;20082;-72
2021/12/03 08:09:26;;;;;;;8.25;4.13;;;3.10;99.90;;;;;;5072350;28;20331;-73
2021/12/03 08:11:52;;;;;;;14.68;7.53;;;3.20;99.90;;;;;;5072383;28;20101;-72
2021/12/03 08:14:18;;;;;;;11.05;6.25;;;3.10;99.90;;;;;;5072359;28;20052;-71
2021/12/03 08:16:44;;;;;;;17.30;7.80;;;3.20;99.90;;;;;;5072405;28;20048;-72
2021/12/03 08:19:10;;;;;;;19.65;7.72;;;3.10;99.90;;;;;;5072306;28;20469;-72
2021/12/03 08:21:36;;;;;;;16.02;9.05;;;3.20;99.90;;;;;;5072300;28;20048;-72
2021/12/03 08:24:02;;;;;;;18.35;8.90;;;3.20;99.90;;;;;;5054400;28;20327;-72
2021/12/03 08:26:28;;;;;;;18.23;9.30;;;3.10;99.90;;;;;;5072346;28;20450;-72
2021/12/03 08:28:54;;;;;;;14.10;8.60;;;3.20;99.90;;;;;;5072254;28;20048;-72
2021/12/03 08:31:20;;;;;;;22.80;10.45;;;3.20;99.90;;;;;;5072381;28;20043;-72
2021/12/03 08:33:47;;;;;;;18.38;10.05;;;3.20;99.90;;;;;;5072107;28;20076;-72
2021/12/03 08:36:14;;;;;;;18.08;8.73;;;3.30;99.90;;;;;;5072475;28;20036;-72
2021/12/03 08:38:40;;;;;;;21.08;10.18;;;3.30;99.90;;;;;;5072182;28;20123;-72
2021/12/03 08:41:07;;;;;;;18.75;9.60;;;3.40;99.90;;;;;;5076135;28;20052;-72
2021/12/03 08:43:33;;;;;;;17.33;7.75;;;3.40;99.90;;;;;;5076024;28;20193;-72
2021/12/03 08:46:07;;;;;;;18.33;10.18;;;3.40;99.90;;;;;;5076096;28;20123;-72
2021/12/03 08:48:37;;;;;;;21.20;10.52;;;3.50;99.90;;;;;;5075740;28;20357;-72
2021/12/03 08:56:27;;;;;;;15.73;8.98;;;3.50;99.90;;;;;;5086208;28;20069;-72
2021/12/03 08:58:53;;;;;;;17.80;8.88;;;3.60;99.90;;;;;;5114430;28;20454;-72
2021/12/03 09:01:18;;;;;;;16.15;9.63;;;3.60;99.90;;;;;;5116279;28;20513;-73
2021/12/03 09:03:44;;;;;;;24.80;10.80;;;3.60;99.90;;;;;;5110733;28;20082;-71
2021/12/03 09:06:10;;;;;;;19.60;9.77;;;3.60;99.90;;;;;;5096019;28;20036;-72
2021/12/03 09:08:36;;;;;;;19.73;9.55;;;3.60;99.90;;;;;;5095447;28;20476;-72
2021/12/03 09:11:02;;;;;;;19.58;8.73;;;3.60;99.90;;;;;;5095974;28;20047;-72
2021/12/03 09:13:28;;;;;;;17.48;9.05;;;3.60;99.90;;;;;;5095706;28;20090;-73
2021/12/03 09:16:02;;;;;;;14.93;6.70;;;3.70;99.90;;;;;;5095841;28;20051;-77
2021/12/03 09:21:20;;;;;;;19.13;8.80;;;3.70;99.90;;;;;;5095697;28;20051;-73
2021/12/03 09:26:41;;;;;;;16.67;7.47;;;3.80;99.90;;;;;;5050364;28;20047;-73
2021/12/03 09:29:09;;;;;;;12.40;6.05;;;3.80;99.90;;;;;;5095419;28;20460;-72
2021/12/03 09:31:37;;;;;;;16.70;7.38;;;3.80;99.90;;;;;;5095694;28;20044;-73
2021/12/03 09:34:10;;;;;;;16.27;6.53;;;3.90;99.90;;;;;;5099100;28;20048;-73
2021/12/03 09:36:40;;;;;;;16.10;7.15;;;3.90;99.90;;;;;;5095430;28;20124;-72
2021/12/03 09:39:06;;;;;;;25.35;8.23;;;3.90;99.90;;;;;;5095320;28;20392;-72
2021/12/03 09:41:32;;;;;;;19.05;6.68;;;4.00;99.90;;;;;;5060967;28;20047;-71
2021/12/03 09:43:58;;;;;;;20.65;7.07;;;4.00;99.90;;;;;;5095128;28;20044;-72
2021/12/03 09:46:25;;;;;;;19.17;7.30;;;4.00;99.90;;;;;;5095187;28;20044;-73
2021/12/03 09:49:06;;;;;;;16.73;6.93;;;4.10;99.90;;;;;;5095058;28;20050;-72
2021/12/03 09:51:41;;;;;;;11.52;6.03;;;4.10;99.90;;;;;;5093901;28;20498;-72
2021/12/03 09:56:38;;;;;;;18.00;5.68;;;4.20;99.90;;;;;;5095173;28;20682;-72
2021/12/03 09:59:53;;;;;;;15.43;4.25;;;4.30;99.90;;;;;;5095062;28;20047;-73
2021/12/03 10:02:25;;;;;;;17.45;5.45;;;4.30;99.90;;;;;;5094511;28;20040;-72
2021/12/03 10:15:33;;;;;;;17.17;5.28;;;4.20;99.90;;;;;;5094633;28;20044;-71
2021/12/03 10:18:23;;;;;;;10.60;4.15;;;4.20;99.90;;;;;;5094790;28;20079;-72
2021/12/03 10:48:22;;;;;;;7.90;4.00;;;4.20;99.90;;;;;;5094000;28;20051;-72
2021/12/03 11:04:21;;;;;;;10.30;4.28;;;4.30;99.90;;;;;;5091566;28;20048;-72
2021/12/03 11:12:37;;;;;;;13.05;4.45;;;4.20;99.90;;;;;;5108884;28;20085;-73
2021/12/03 11:20:26;;;;;;;10.93;4.43;;;4.30;99.90;;;;;;5093414;28;20372;-73
2021/12/03 11:38:44;;;;;;;11.38;3.88;;;4.30;99.90;;;;;;5093073;28;20152;-72
2021/12/03 14:00:56;;;;;;;18.75;5.43;;;4.70;99.90;;;;;;5076017;28;20055;-73
2021/12/03 14:39:12;;;;;;;7.90;4.07;;;4.90;99.90;;;;;;5076484;28;20135;-72
2021/12/03 14:44:27;;;;;;;7.57;3.90;;;4.90;99.90;;;;;;5094121;28;20126;-72
2021/12/03 14:53:16;;;;;;;5.45;3.92;;;4.90;99.90;;;;;;5093939;28;20169;-72
2021/12/03 14:55:47;;;;;;;8.02;3.90;;;4.90;99.90;;;;;;5094091;28;20335;-72
2021/12/03 14:58:17;;;;;;;6.03;4.05;;;4.90;99.90;;;;;;5093874;28;20039;-72
2021/12/03 15:03:41;;;;;;;10.40;4.32;;;4.90;99.90;;;;;;5093578;28;20286;-72
2021/12/03 15:14:06;;;;;;;12.63;5.18;;;4.90;99.90;;;;;;5055887;28;20504;-73
2021/12/03 15:32:18;;;;;;;7.65;6.20;;;4.80;99.90;;;;;;5041884;28;20079;-72
2021/12/03 15:38:19;;;;;;;10.30;7.35;;;4.80;99.90;;;;;;5072864;28;20087;-72
2021/12/03 16:04:35;;;;;;;12.30;9.30;;;4.70;99.90;;;;;;5083596;28;20361;-72
2021/12/03 16:23:45;;;;;;;16.92;14.55;;;4.60;99.90;;;;;;5092622;28;20378;-72
2021/12/03 16:52:13;;;;;;;21.05;18.05;;;4.50;99.90;;;;;;5092930;28;20051;-73
2021/12/03 16:57:07;;;;;;;26.58;20.25;;;4.50;99.90;;;;;;5075943;28;20408;-73
2021/12/03 16:59:33;;;;;;;21.67;18.80;;;4.50;99.90;;;;;;5093714;28;20058;-72
2021/12/03 17:02:05;;;;;;;24.67;19.92;;;4.50;99.90;;;;;;5097435;28;20040;-72
2021/12/03 17:49:34;;;;;;;33.95;23.50;;;4.60;99.90;;;;;;5115339;28;20062;-72
2021/12/03 17:54:57;;;;;;;35.90;25.67;;;4.60;99.90;;;;;;5116020;28;20055;-72
2021/12/03 17:59:50;;;;;;;35.28;22.48;;;4.60;99.90;;;;;;5115748;28;20044;-73
2021/12/03 18:02:37;;;;;;;37.35;25.15;;;4.70;99.90;;;;;;5098030;28;20043;-74
2021/12/03 18:43:26;;;;;;;41.75;27.73;;;4.70;99.90;;;;;;5077920;28;20525;-71
2021/12/03 18:51:29;;;;;;;44.50;29.08;;;4.70;99.90;;;;;;5095756;28;20052;-72
2021/12/03 18:56:45;;;;;;;43.85;27.75;;;4.70;99.90;;;;;;5095578;28;20048;-72
2021/12/03 18:59:11;;;;;;;46.40;30.90;;;4.70;99.90;;;;;;5077855;28;20051;-72
2021/12/03 19:01:38;;;;;;;52.92;30.08;;;4.70;99.90;;;;;;5095628;28;20117;-72
2021/12/03 19:08:03;;;;;;;43.80;28.45;;;4.70;99.90;;;;;;5046400;28;20339;-71
2021/12/03 19:09:52;;;;;;;49.20;29.75;;;4.70;99.90;;;;;;5061075;28;20044;-72
2021/12/03 19:12:22;;;;;;;50.45;30.40;;;4.70;99.90;;;;;;5074666;28;20106;-72
2021/12/03 19:14:56;;;;;;;51.00;30.70;;;4.70;99.90;;;;;;5075017;28;20040;-72
2021/12/03 19:17:23;;;;;;;43.40;23.23;;;4.70;99.90;;;;;;5074973;28;20044;-71
2021/12/03 19:19:53;;;;;;;48.40;28.17;;;4.70;99.90;;;;;;5074742;28;20055;-70
2021/12/03 19:22:19;;;;;;;43.65;26.65;;;4.70;99.90;;;;;;5074826;28;20056;-72
2021/12/03 19:24:45;;;;;;;53.53;32.72;;;4.70;99.90;;;;;;5073730;28;20051;-72
2021/12/03 19:27:11;;;;;;;62.67;34.53;;;4.70;99.90;;;;;;5074846;28;20115;-72
2021/12/03 19:29:38;;;;;;;42.53;25.23;;;4.70;99.90;;;;;;5074854;28;20083;-72
2021/12/03 19:32:05;;;;;;;51.15;28.60;;;4.80;99.90;;;;;;5074441;28;20448;-71
2021/12/03 19:34:31;;;;;;;54.42;31.77;;;4.70;99.90;;;;;;5074350;28;20437;-72
2021/12/03 19:36:58;;;;;;;56.55;32.47;;;4.80;99.90;;;;;;5074325;28;20100;-70
2021/12/03 19:39:25;;;;;;;52.42;32.60;;;4.80;99.90;;;;;;5057051;28;20044;-72
2021/12/03 19:42:10;;;;;;;59.00;35.55;;;4.80;99.90;;;;;;5074299;28;20425;-72
2021/12/03 19:44:42;;;;;;;59.13;36.00;;;4.70;99.90;;;;;;5074238;28;20579;-73
2021/12/03 19:47:11;;;;;;;63.58;36.50;;;4.70;99.90;;;;;;5075398;28;20123;-75
2021/12/03 19:52:46;;;;;;;60.38;33.55;;;4.70;99.90;;;;;;5012501;28;20081;-73
2021/12/03 19:55:12;;;;;;;46.90;28.10;;;4.70;99.90;;;;;;4996052;28;20080;-72
2021/12/03 19:57:38;;;;;;;56.65;32.83;;;4.70;99.90;;;;;;5043078;28;20052;-72
2021/12/03 20:00:05;;;;;;;56.92;32.58;;;4.80;99.90;;;;;;5056402;28;20055;-72
2021/12/03 20:02:31;;;;;;;43.05;24.80;;;4.70;99.90;;;;;;5073578;28;20096;-72
2021/12/03 20:04:58;;;;;;;42.03;24.75;;;4.70;99.90;;;;;;5089620;28;20047;-73
2021/12/03 20:07:24;;;;;;;56.17;33.47;;;4.80;99.90;;;;;;5094701;28;20131;-72
2021/12/03 20:10:08;;;;;;;55.38;34.20;;;4.80;99.90;;;;;;5094904;28;20062;-72
2021/12/03 20:12:34;;;;;;;56.97;33.53;;;4.80;99.90;;;;;;5094927;28;20326;-72
2021/12/03 20:15:02;;;;;;;47.63;26.88;;;4.80;99.90;;;;;;5094072;28;20103;-72
2021/12/03 20:17:32;;;;;;;41.78;24.77;;;4.80;99.90;;;;;;5094648;28;20044;-73
2021/12/03 20:20:00;;;;;;;54.65;30.58;;;4.80;99.90;;;;;;5094814;28;20063;-73
2021/12/03 20:28:06;;;;;;;50.97;32.20;;;4.80;99.90;;;;;;5092622;28;20506;-71
2021/12/03 20:36:03;;;;;;;51.15;32.53;;;4.80;99.90;;;;;;5094165;28;20127;-71
2021/12/03 20:38:30;;;;;;;51.75;30.88;;;4.80;99.90;;;;;;5095283;28;20036;-72
2021/12/03 20:41:01;;;;;;;55.65;32.67;;;4.80;99.90;;;;;;5096573;28;20376;-72
2021/12/03 20:43:37;;;;;;;62.50;34.65;;;4.80;99.90;;;;;;5096240;28;20044;-72
2021/12/03 20:52:05;;;;;;;58.85;32.88;;;4.80;99.90;;;;;;5096016;28;20056;-72
2021/12/03 21:08:26;;;;;;;62.13;33.05;;;4.80;99.90;;;;;;5075401;28;20113;-72
2021/12/03 21:13:31;;;;;;;54.90;31.35;;;4.80;99.90;;;;;;5074981;28;20463;-73
2021/12/03 21:21:39;;;;;;;59.63;32.45;;;4.90;99.90;;;;;;5075431;28;20044;-73
2021/12/03 21:23:44;;;;;;;52.20;29.13;;;4.80;99.90;;;;;;5066492;28;20052;-73